createdAt,value
2023-05-17T00:01:11.659Z,3.42
2023-05-17T00:03:13.907Z,3.08
2023-05-17T00:05:16.445Z,3.28
2023-05-17T00:07:18.665Z,3.25
2023-05-17T00:09:20.842Z,3.10
2023-05-17T00:11:23.032Z,3.58
2023-05-17T00:13:25.372Z,3.60
2023-05-17T00:15:27.769Z,3.78
2023-05-17T00:17:30.235Z,3.65
2023-05-17T00:19:32.498Z,3.28
2023-05-17T00:21:35.146Z,3.50
2023-05-17T00:23:37.321Z,3.00
2023-05-17T00:25:39.536Z,3.00
2023-05-17T00:27:41.848Z,3.65
2023-05-17T00:29:44.023Z,3.58
2023-05-17T00:31:46.312Z,3.00
2023-05-17T00:33:48.567Z,3.60
2023-05-17T00:35:51.136Z,4.10
2023-05-17T00:37:53.303Z,3.00
2023-05-17T00:39:55.773Z,3.10
2023-05-17T00:41:58.005Z,3.20
2023-05-17T00:44:00.330Z,3.40
2023-05-17T00:46:02.559Z,3.15
2023-05-17T00:48:04.962Z,3.42
2023-05-17T00:50:07.669Z,3.65
2023-05-17T00:52:09.974Z,3.67
2023-05-17T00:54:12.258Z,3.35
2023-05-17T00:56:14.462Z,3.42
2023-05-17T00:58:17.104Z,3.55
2023-05-17T01:02:21.458Z,3.58
2023-05-17T01:04:23.775Z,3.42
2023-05-17T01:06:26.080Z,3.00
2023-05-17T01:08:28.239Z,3.10
2023-05-17T01:10:53.799Z,3.72
2023-05-17T01:13:14.422Z,3.58
2023-05-17T01:15:19.453Z,3.22
2023-05-17T01:17:27.430Z,2.85
2023-05-17T01:19:41.966Z,2.83
2023-05-17T01:21:53.340Z,3.28
2023-05-17T01:24:14.123Z,3.60
2023-05-17T01:26:21.801Z,4.32
2023-05-17T01:28:24.204Z,3.40
2023-05-17T01:30:26.988Z,3.80
2023-05-17T01:32:30.044Z,3.40
2023-05-17T01:34:32.328Z,3.45
2023-05-17T01:36:34.525Z,3.40
2023-05-17T01:38:36.770Z,2.97
2023-05-17T01:40:41.718Z,3.10
2023-05-17T01:42:44.662Z,3.13
2023-05-17T01:44:51.625Z,3.08
2023-05-17T01:46:57.369Z,3.05
2023-05-17T01:49:17.014Z,3.25
2023-05-17T01:51:20.524Z,3.15
2023-05-17T01:53:30.004Z,3.20
2023-05-17T01:55:42.197Z,2.83
2023-05-17T01:57:45.650Z,2.80
2023-05-17T01:59:49.255Z,2.80
2023-05-17T02:01:54.749Z,2.92
2023-05-17T02:03:57.006Z,2.50
2023-05-17T02:05:59.227Z,2.92
2023-05-17T02:08:01.445Z,2.95
2023-05-17T02:10:03.842Z,3.22
2023-05-17T02:12:06.339Z,3.05
2023-05-17T02:14:08.500Z,3.58
2023-05-17T02:16:11.131Z,3.17
2023-05-17T02:20:15.664Z,3.08
2023-05-17T02:22:17.921Z,3.38
2023-05-17T02:24:20.302Z,3.20
2023-05-17T02:26:22.506Z,3.55
2023-05-17T02:28:24.785Z,3.80
2023-05-17T02:30:26.996Z,3.33
2023-05-17T02:32:29.697Z,4.15
2023-05-17T02:34:32.052Z,4.00
2023-05-17T02:36:34.613Z,3.50
2023-05-17T02:38:36.915Z,4.00
2023-05-17T02:40:41.650Z,3.72
2023-05-17T02:42:44.149Z,3.95
2023-05-17T02:44:48.531Z,3.90
2023-05-17T02:46:50.775Z,4.05
2023-05-17T02:48:52.974Z,4.53
2023-05-17T02:50:55.297Z,3.35
2023-05-17T02:52:57.485Z,4.40
2023-05-17T02:54:59.718Z,3.97
2023-05-17T02:57:02.984Z,3.63
2023-05-17T02:59:05.432Z,4.35
2023-05-17T03:01:07.706Z,3.25
2023-05-17T03:03:10.048Z,4.38
2023-05-17T03:05:12.360Z,2.97
2023-05-17T03:07:14.535Z,3.25
2023-05-17T03:09:16.713Z,3.00
2023-05-17T03:11:18.904Z,4.20
2023-05-17T03:13:21.053Z,3.70
2023-05-17T03:15:23.735Z,3.03
2023-05-17T03:19:28.848Z,3.03
2023-05-17T03:21:31.650Z,2.70
2023-05-17T03:25:36.011Z,3.30
2023-05-17T03:27:38.268Z,3.10
2023-05-17T03:29:40.557Z,3.17
2023-05-17T03:31:42.755Z,3.60
2023-05-17T03:33:45.604Z,2.60
2023-05-17T03:35:48.059Z,2.80
2023-05-17T03:37:50.307Z,3.20
2023-05-17T03:39:52.590Z,3.67
2023-05-17T03:41:54.830Z,3.10
2023-05-17T03:43:57.034Z,2.83
2023-05-17T03:45:59.252Z,2.97
2023-05-17T03:48:01.472Z,3.20
2023-05-17T03:50:03.807Z,3.10
2023-05-17T03:52:06.117Z,3.70
2023-05-17T03:54:08.326Z,3.20
2023-05-17T03:56:11.228Z,3.25
2023-05-17T03:58:13.452Z,3.85
2023-05-17T04:00:21.286Z,3.40
2023-05-17T04:02:23.630Z,3.40
2023-05-17T04:04:26.853Z,3.45
2023-05-17T04:06:29.259Z,3.58
2023-05-17T04:08:31.537Z,3.30
2023-05-17T04:10:33.769Z,3.40
2023-05-17T04:12:36.102Z,2.95
2023-05-17T04:14:38.908Z,2.78
2023-05-17T04:16:41.136Z,3.60
2023-05-17T04:18:43.590Z,3.92
2023-05-17T04:20:45.915Z,2.80
2023-05-17T04:22:48.101Z,2.92
2023-05-17T04:24:50.860Z,3.10
2023-05-17T04:26:53.089Z,3.03
2023-05-17T04:28:55.350Z,2.78
2023-05-17T04:30:57.708Z,3.00
2023-05-17T04:33:00.202Z,2.42
2023-05-17T04:35:03.249Z,2.85
2023-05-17T04:37:05.897Z,3.17
2023-05-17T04:41:10.288Z,3.30
2023-05-17T04:43:12.617Z,3.22
2023-05-17T04:45:16.239Z,3.33
2023-05-17T04:47:18.502Z,2.60
2023-05-17T04:49:20.767Z,2.97
2023-05-17T04:51:23.022Z,3.38
2023-05-17T04:53:25.268Z,2.70
2023-05-17T04:55:27.710Z,2.97
2023-05-17T04:57:30.197Z,3.28
2023-05-17T04:59:32.552Z,3.00
2023-05-17T05:01:35.364Z,2.67
2023-05-17T05:03:37.727Z,2.78
2023-05-17T05:05:40.045Z,2.97
2023-05-17T05:07:42.287Z,2.60
2023-05-17T05:09:44.590Z,2.78
2023-05-17T05:11:46.873Z,2.92
2023-05-17T05:13:49.131Z,2.95
2023-05-17T05:15:51.405Z,2.80
2023-05-17T05:17:53.703Z,2.80
2023-05-17T05:19:56.058Z,2.42
2023-05-17T05:21:58.357Z,2.53
2023-05-17T05:24:00.588Z,2.97
2023-05-17T05:26:02.749Z,2.70
2023-05-17T05:28:05.025Z,2.95
2023-05-17T05:30:07.789Z,3.10
2023-05-17T05:34:12.161Z,3.38
2023-05-17T05:36:14.479Z,2.47
2023-05-17T05:38:16.700Z,2.67
2023-05-17T05:40:19.009Z,2.65
2023-05-17T05:42:21.230Z,3.08
2023-05-17T05:44:25.708Z,2.25
2023-05-17T05:46:28.243Z,2.63
2023-05-17T05:48:30.562Z,2.58
2023-05-17T05:50:32.901Z,2.00
2023-05-17T05:52:35.069Z,2.15
2023-05-17T05:54:37.315Z,2.30
2023-05-17T05:56:39.493Z,2.38
2023-05-17T05:58:41.822Z,2.42
2023-05-17T06:00:44.198Z,2.28
2023-05-17T06:02:46.410Z,2.55
2023-05-17T06:04:48.726Z,2.03
2023-05-17T06:06:51.254Z,2.55
2023-05-17T06:08:53.546Z,2.22
2023-05-17T06:10:55.859Z,2.67
2023-05-17T06:12:58.070Z,2.85
2023-05-17T06:15:00.379Z,2.42
2023-05-17T06:17:02.563Z,3.13
2023-05-17T06:19:05.561Z,2.22
2023-05-17T06:21:07.838Z,1.90
2023-05-17T06:23:10.033Z,2.22
2023-05-17T06:25:12.285Z,1.77
2023-05-17T06:27:14.483Z,1.90
2023-05-17T06:29:16.674Z,2.97
2023-05-17T06:31:21.002Z,2.35
2023-05-17T06:33:23.637Z,2.40
2023-05-17T06:35:25.946Z,2.88
2023-05-17T06:37:28.149Z,1.80
2023-05-17T06:39:32.882Z,2.30
2023-05-17T06:41:35.076Z,2.55
2023-05-17T06:43:37.919Z,2.10
2023-05-17T06:45:41.235Z,2.63
2023-05-17T06:47:43.689Z,1.88
2023-05-17T06:49:45.973Z,2.03
2023-05-17T06:51:48.875Z,2.10
2023-05-17T06:53:51.478Z,2.33
2023-05-17T06:55:53.690Z,1.92
2023-05-17T06:57:56.038Z,2.00
2023-05-17T06:59:58.393Z,1.85
2023-05-17T07:02:00.621Z,2.55
2023-05-17T07:04:03.122Z,2.03
2023-05-17T07:06:05.601Z,2.10
2023-05-17T07:08:07.833Z,2.33
2023-05-17T07:10:10.072Z,2.55
2023-05-17T07:12:12.291Z,1.90
2023-05-17T07:14:14.449Z,2.15
2023-05-17T07:16:16.797Z,2.20
2023-05-17T07:18:19.170Z,2.00
2023-05-17T07:20:21.611Z,2.00
2023-05-17T07:22:23.803Z,2.03
2023-05-17T07:24:26.211Z,2.45
2023-05-17T07:26:28.451Z,2.08
2023-05-17T07:28:30.619Z,2.22
2023-05-17T07:30:32.887Z,2.10
2023-05-17T07:32:35.116Z,2.28
2023-05-17T07:34:37.793Z,1.80
2023-05-17T07:38:42.383Z,2.13
2023-05-17T07:40:44.607Z,2.03
2023-05-17T07:42:46.878Z,2.15
2023-05-17T07:44:50.038Z,2.22
2023-05-17T07:46:52.462Z,2.05
2023-05-17T07:48:58.163Z,2.28
2023-05-17T07:51:01.137Z,2.47
2023-05-17T07:53:03.466Z,2.28
2023-05-17T07:55:06.046Z,2.10
2023-05-17T07:57:08.381Z,1.98
2023-05-17T07:59:12.947Z,1.70
2023-05-17T08:01:17.381Z,2.10
2023-05-17T08:03:19.679Z,2.22
2023-05-17T08:05:21.941Z,2.40
2023-05-17T08:07:24.151Z,1.92
2023-05-17T08:09:26.384Z,1.90
2023-05-17T08:11:28.856Z,1.73
2023-05-17T08:13:31.014Z,2.30
2023-05-17T08:15:33.342Z,2.13
2023-05-17T08:17:36.351Z,2.65
2023-05-17T08:19:39.320Z,1.83
2023-05-17T08:21:42.399Z,1.83
2023-05-17T08:23:44.798Z,1.90
2023-05-17T08:25:47.046Z,2.45
2023-05-17T08:27:49.277Z,2.08
2023-05-17T08:29:51.865Z,2.45
2023-05-17T08:31:59.031Z,1.73
2023-05-17T08:34:03.265Z,1.73
2023-05-17T08:36:08.182Z,1.92
2023-05-17T08:38:10.479Z,1.83
2023-05-17T08:40:12.835Z,1.70
2023-05-17T08:42:15.902Z,2.20
2023-05-17T08:44:18.196Z,1.95
2023-05-17T08:46:22.004Z,1.60
2023-05-17T08:48:24.526Z,1.88
2023-05-17T08:50:29.889Z,2.28
2023-05-17T08:52:32.950Z,1.90
2023-05-17T08:54:35.741Z,2.38
2023-05-17T08:58:54.899Z,1.90
2023-05-17T09:00:59.445Z,1.90
2023-05-17T09:03:01.869Z,2.15
2023-05-17T09:07:07.893Z,2.20
2023-05-17T09:09:10.380Z,2.00
2023-05-17T09:11:12.625Z,1.80
2023-05-17T09:13:14.920Z,1.80
2023-05-17T09:15:18.311Z,1.90
2023-05-17T09:17:21.573Z,1.23
2023-05-17T09:19:24.031Z,1.90
2023-05-17T09:21:27.646Z,1.80
2023-05-17T09:23:32.584Z,1.77
2023-05-17T09:25:34.904Z,1.88
2023-05-17T09:27:37.206Z,2.25
2023-05-17T09:29:40.146Z,1.95
2023-05-17T09:31:42.601Z,2.00
2023-05-17T09:33:45.808Z,1.92
2023-05-17T09:35:48.161Z,2.08
2023-05-17T09:37:50.443Z,1.90
2023-05-17T09:39:52.772Z,1.90
2023-05-17T09:41:57.764Z,2.17
2023-05-17T09:44:03.890Z,2.17
2023-05-17T09:46:06.783Z,1.73
2023-05-17T09:48:18.693Z,2.20
2023-05-17T09:50:23.253Z,2.38
2023-05-17T09:52:32.035Z,2.25
2023-05-17T09:54:41.285Z,2.08
2023-05-17T09:56:43.475Z,2.28
2023-05-17T09:58:45.754Z,2.25
2023-05-17T10:00:50.465Z,2.17
2023-05-17T10:02:52.749Z,1.85
2023-05-17T10:04:57.343Z,2.20
2023-05-17T10:07:00.619Z,1.83
2023-05-17T10:09:03.174Z,2.00
2023-05-17T10:11:09.636Z,2.10
2023-05-17T10:13:13.146Z,2.08
2023-05-17T10:15:17.728Z,2.13
2023-05-17T10:17:20.122Z,2.22
2023-05-17T10:19:22.474Z,2.00
2023-05-17T10:21:24.962Z,2.17
2023-05-17T10:23:27.394Z,1.92
2023-05-17T10:25:30.114Z,2.25
2023-05-17T10:27:32.546Z,1.95
2023-05-17T10:29:35.140Z,2.15
2023-05-17T10:31:37.484Z,2.17
2023-05-17T10:33:40.075Z,2.00
2023-05-17T10:37:44.498Z,1.92
2023-05-17T10:39:46.961Z,2.00
2023-05-17T10:41:52.850Z,2.10
2023-05-17T10:43:55.845Z,2.25
2023-05-17T10:45:58.113Z,2.10
2023-05-17T10:48:01.546Z,2.08
2023-05-17T10:50:09.551Z,1.98
2023-05-17T10:52:12.981Z,2.10
2023-05-17T10:54:18.876Z,1.90
2023-05-17T10:56:23.469Z,1.90
2023-05-17T10:58:29.702Z,2.08
2023-05-17T11:00:33.147Z,2.20
2023-05-17T11:02:35.854Z,2.08
2023-05-17T11:06:41.289Z,1.67
2023-05-17T11:08:48.142Z,2.33
2023-05-17T11:11:10.139Z,2.10
2023-05-17T11:13:32.678Z,2.00
2023-05-17T11:15:34.865Z,2.57
2023-05-17T11:17:38.405Z,2.60
2023-05-17T11:19:49.570Z,2.08
2023-05-17T11:21:52.085Z,2.17
2023-05-17T11:23:58.663Z,2.33
2023-05-17T11:26:16.245Z,1.50
2023-05-17T11:28:19.780Z,1.60
2023-05-17T11:30:28.934Z,1.35
2023-05-17T11:32:33.169Z,1.40
2023-05-17T11:34:35.732Z,1.90
2023-05-17T11:36:55.003Z,1.85
2023-05-17T11:39:13.620Z,2.40
2023-05-17T11:43:27.385Z,2.10
2023-05-17T11:45:30.073Z,1.50
2023-05-17T11:49:38.841Z,1.50
2023-05-17T11:51:41.988Z,2.22
2023-05-17T11:53:44.835Z,1.45
2023-05-17T11:55:48.004Z,1.58
2023-05-17T11:57:50.568Z,1.90
2023-05-17T11:59:59.487Z,1.30
2023-05-17T12:02:01.723Z,1.23
2023-05-17T12:04:04.231Z,1.40
2023-05-17T12:06:06.703Z,1.42
2023-05-17T12:08:09.057Z,1.20
2023-05-17T12:10:13.568Z,1.48
2023-05-17T12:12:16.411Z,1.33
2023-05-17T12:16:23.038Z,1.33
2023-05-17T12:18:36.563Z,0.90
2023-05-17T12:20:39.388Z,1.10
2023-05-17T12:24:43.836Z,1.33
2023-05-17T12:26:46.821Z,1.10
2023-05-17T12:28:55.371Z,1.23
2023-05-17T12:30:58.815Z,1.33
2023-05-17T12:33:01.183Z,1.30
2023-05-17T12:35:03.541Z,1.45
2023-05-17T12:37:10.285Z,1.20
2023-05-17T12:39:13.689Z,1.30
2023-05-17T12:41:16.818Z,1.20
2023-05-17T12:43:19.856Z,1.20
2023-05-17T12:45:22.167Z,1.17
2023-05-17T12:47:26.345Z,1.40
2023-05-17T12:49:28.699Z,1.13
2023-05-17T12:51:31.296Z,1.30
2023-05-17T12:53:38.820Z,1.20
2023-05-17T12:55:41.542Z,1.20
2023-05-17T12:59:53.574Z,0.93
2023-05-17T13:01:56.906Z,1.10
2023-05-17T13:03:59.264Z,1.42
2023-05-17T13:06:05.839Z,1.27
2023-05-17T13:08:20.887Z,1.27
2023-05-17T13:10:26.191Z,1.13
2023-05-17T13:12:28.481Z,1.58
2023-05-17T13:14:51.877Z,1.55
2023-05-17T13:16:54.191Z,1.50
2023-05-17T13:18:56.506Z,1.33
2023-05-17T13:20:58.771Z,1.50
2023-05-17T13:23:00.974Z,1.70
2023-05-17T13:25:04.073Z,1.92
2023-05-17T13:27:06.809Z,1.40
2023-05-17T13:31:11.169Z,1.70
2023-05-17T13:33:13.484Z,1.27
2023-05-17T13:35:15.818Z,1.63
2023-05-17T13:37:18.008Z,1.50
2023-05-17T13:39:21.067Z,1.48
2023-05-17T13:41:23.233Z,1.75
2023-05-17T13:43:25.596Z,1.70
2023-05-17T13:45:28.677Z,1.30
2023-05-17T13:47:32.111Z,1.70
2023-05-17T13:49:34.558Z,1.65
2023-05-17T13:51:39.774Z,1.73
2023-05-17T13:53:42.931Z,1.58
2023-05-17T13:55:45.160Z,1.77
2023-05-17T13:57:47.323Z,1.77
2023-05-17T13:59:49.551Z,2.15
2023-05-17T14:01:51.824Z,2.00
2023-05-17T14:03:55.329Z,1.92
2023-05-17T14:05:57.772Z,1.80
2023-05-17T14:08:00.293Z,2.13
2023-05-17T14:10:02.481Z,1.85
2023-05-17T14:12:05.016Z,1.90
2023-05-17T14:14:07.361Z,2.22
2023-05-17T14:16:09.585Z,2.05
2023-05-17T14:18:11.966Z,2.00
2023-05-17T14:20:14.868Z,1.75
2023-05-17T14:22:17.302Z,2.22
2023-05-17T14:24:19.664Z,2.15
2023-05-17T14:26:22.316Z,3.05
2023-05-17T14:28:24.632Z,2.25
2023-05-17T14:30:26.831Z,1.88
2023-05-17T14:32:29.010Z,2.25
2023-05-17T14:34:31.310Z,1.80
2023-05-17T14:36:36.226Z,2.03
2023-05-17T14:38:38.475Z,2.10
2023-05-17T14:40:40.696Z,1.92
2023-05-17T14:42:43.378Z,1.70
2023-05-17T14:46:47.809Z,1.90
2023-05-17T14:48:52.333Z,1.50
2023-05-17T14:50:54.723Z,2.47
2023-05-17T14:52:57.198Z,1.90
2023-05-17T14:54:59.483Z,1.23
2023-05-17T14:57:01.789Z,1.90
2023-05-17T14:59:04.024Z,2.08
2023-05-17T15:01:07.251Z,1.83
2023-05-17T15:03:10.453Z,1.50
2023-05-17T15:05:13.233Z,2.08
2023-05-17T15:07:15.758Z,1.77
2023-05-17T15:09:18.768Z,1.50
2023-05-17T15:11:21.855Z,1.80
2023-05-17T15:13:24.104Z,1.90
2023-05-17T15:15:26.301Z,2.25
2023-05-17T15:17:28.668Z,1.55
2023-05-17T15:19:32.313Z,1.88
2023-05-17T15:21:34.616Z,1.67
2023-05-17T15:23:37.144Z,2.00
2023-05-17T15:25:39.401Z,1.95
2023-05-17T15:27:41.709Z,2.25
2023-05-17T15:29:45.430Z,2.42
2023-05-17T15:31:47.696Z,2.22
2023-05-17T15:33:49.970Z,2.55
2023-05-17T15:35:53.679Z,2.17
2023-05-17T15:37:58.067Z,2.00
2023-05-17T15:40:07.107Z,1.85
2023-05-17T15:42:09.302Z,2.17
2023-05-17T15:44:11.682Z,2.10
2023-05-17T15:46:13.926Z,1.95
2023-05-17T15:48:16.240Z,2.15
2023-05-17T15:50:18.496Z,2.22
2023-05-17T15:52:20.782Z,1.55
2023-05-17T15:54:22.971Z,2.05
2023-05-17T15:56:25.366Z,2.30
2023-05-17T15:58:28.216Z,2.30
2023-05-17T16:00:31.650Z,1.98
2023-05-17T16:02:33.934Z,1.90
2023-05-17T16:04:36.240Z,2.22
2023-05-17T16:06:38.535Z,2.20
2023-05-17T16:08:41.422Z,2.35
2023-05-17T16:10:43.656Z,1.83
2023-05-17T16:12:47.406Z,1.80
2023-05-17T16:14:49.653Z,2.15
2023-05-17T16:16:51.844Z,1.65
2023-05-17T16:18:54.328Z,2.30
2023-05-17T16:21:03.791Z,2.95
2023-05-17T16:23:07.390Z,2.35
2023-05-17T16:25:09.685Z,2.33
2023-05-17T16:27:11.896Z,2.00
2023-05-17T16:29:16.880Z,2.25
2023-05-17T16:31:19.188Z,2.80
2023-05-17T16:33:21.698Z,2.40
2023-05-17T16:35:24.071Z,2.63
2023-05-17T16:37:26.300Z,3.05
2023-05-17T16:39:28.775Z,3.20
2023-05-17T16:41:33.389Z,3.47
2023-05-17T16:43:35.649Z,3.20
2023-05-17T16:45:37.918Z,3.42
2023-05-17T16:47:40.274Z,3.83
2023-05-17T16:49:43.137Z,3.80
2023-05-17T16:53:48.236Z,3.47
2023-05-17T16:57:52.679Z,3.53
2023-05-17T16:59:55.324Z,3.80
2023-05-17T17:01:58.855Z,2.97
2023-05-17T17:04:01.823Z,3.40
2023-05-17T17:06:04.182Z,3.60
2023-05-17T17:08:06.806Z,4.10
2023-05-17T17:10:09.230Z,4.43
2023-05-17T17:12:23.596Z,5.40
2023-05-17T17:14:26.757Z,4.60
2023-05-17T17:16:29.368Z,3.58
2023-05-17T17:18:31.748Z,4.00
2023-05-17T17:20:33.971Z,4.20
2023-05-17T17:22:36.398Z,4.30
2023-05-17T17:24:39.585Z,4.68
2023-05-17T17:26:41.748Z,4.32
2023-05-17T17:28:44.166Z,4.60
2023-05-17T17:30:47.549Z,4.35
2023-05-17T17:32:50.049Z,4.82
2023-05-17T17:34:52.487Z,5.07
2023-05-17T17:36:55.002Z,4.90
2023-05-17T17:38:57.229Z,4.50
2023-05-17T17:40:59.627Z,4.47
2023-05-17T17:43:01.806Z,4.32
2023-05-17T17:45:04.159Z,5.47
2023-05-17T17:47:08.117Z,4.60
2023-05-17T17:49:10.376Z,4.93
2023-05-17T17:51:12.588Z,5.63
2023-05-17T17:53:14.818Z,4.78
2023-05-17T17:55:17.070Z,4.05
2023-05-17T17:57:20.160Z,4.28
2023-05-17T17:59:22.419Z,4.00
2023-05-17T18:01:25.595Z,4.50
2023-05-17T18:03:27.970Z,4.47
2023-05-17T18:05:30.157Z,4.32
2023-05-17T18:07:32.371Z,4.53
2023-05-17T18:09:34.661Z,4.22
2023-05-17T18:11:38.311Z,4.35
2023-05-17T18:13:40.633Z,3.70
2023-05-17T18:15:43.890Z,4.07
2023-05-17T18:17:46.253Z,4.15
2023-05-17T18:19:48.816Z,3.67
2023-05-17T18:21:51.133Z,3.92
2023-05-17T18:23:53.351Z,3.53
2023-05-17T18:25:55.581Z,4.10
2023-05-17T18:27:57.787Z,4.13
2023-05-17T18:29:59.992Z,3.47
2023-05-17T18:32:02.221Z,3.58
2023-05-17T18:34:04.515Z,4.13
2023-05-17T18:36:06.963Z,4.20
2023-05-17T18:38:09.161Z,4.47
2023-05-17T18:40:11.612Z,5.10
2023-05-17T18:42:13.839Z,4.10
2023-05-17T18:44:18.000Z,4.10
2023-05-17T18:46:21.516Z,4.18
2023-05-17T18:48:24.882Z,4.93
2023-05-17T18:50:27.196Z,4.70
2023-05-17T18:52:29.594Z,4.28
2023-05-17T18:54:31.793Z,4.97
2023-05-17T18:56:34.017Z,4.53
2023-05-17T18:58:36.289Z,4.78
2023-05-17T19:00:38.546Z,4.30
2023-05-17T19:02:40.889Z,5.05
2023-05-17T19:04:44.205Z,6.05
2023-05-17T19:06:47.044Z,6.68
2023-05-17T19:08:50.126Z,6.07
2023-05-17T19:10:52.333Z,5.03
2023-05-17T19:12:54.560Z,4.28
2023-05-17T19:14:56.830Z,3.83
2023-05-17T19:16:59.749Z,4.75
2023-05-17T19:19:02.150Z,4.05
2023-05-17T19:21:04.625Z,4.05
2023-05-17T19:23:06.864Z,4.65
2023-05-17T19:25:09.520Z,3.75
2023-05-17T19:27:12.163Z,3.97
2023-05-17T19:29:15.532Z,4.30
2023-05-17T19:31:17.764Z,4.45
2023-05-17T19:33:19.943Z,4.68
2023-05-17T19:35:22.150Z,4.68
2023-05-17T19:37:24.407Z,4.03
2023-05-17T19:39:26.693Z,3.78
2023-05-17T19:41:28.922Z,3.65
2023-05-17T19:43:32.310Z,4.57
2023-05-17T19:45:34.648Z,3.80
2023-05-17T19:47:36.989Z,3.92
2023-05-17T19:49:39.266Z,4.03
2023-05-17T19:51:41.522Z,4.43
2023-05-17T19:53:52.756Z,4.13
2023-05-17T19:55:56.406Z,4.00
2023-05-17T19:57:58.592Z,4.18
2023-05-17T20:00:00.888Z,4.70
2023-05-17T20:02:03.104Z,4.50
2023-05-17T20:04:05.456Z,4.35
2023-05-17T20:06:11.125Z,4.93
2023-05-17T20:08:13.331Z,4.43
2023-05-17T20:10:15.574Z,3.92
2023-05-17T20:12:17.852Z,4.18
2023-05-17T20:14:20.109Z,4.43
2023-05-17T20:16:22.539Z,4.22
2023-05-17T20:18:27.659Z,4.45
2023-05-17T20:20:30.180Z,4.05
2023-05-17T20:24:35.544Z,4.40
2023-05-17T20:26:37.928Z,4.03
2023-05-17T20:28:40.180Z,4.40
2023-05-17T20:30:44.356Z,4.28
2023-05-17T20:32:46.692Z,4.25
2023-05-17T20:34:48.909Z,4.18
2023-05-17T20:36:51.213Z,3.55
2023-05-17T20:38:53.910Z,4.38
2023-05-17T20:42:58.743Z,4.20
2023-05-17T20:47:04.936Z,4.20
2023-05-17T20:49:09.838Z,4.40
2023-05-17T20:51:12.493Z,4.80
2023-05-17T20:53:14.894Z,4.22
2023-05-17T20:55:17.194Z,4.00
2023-05-17T20:57:19.517Z,4.20
2023-05-17T20:59:23.421Z,3.85
2023-05-17T21:01:26.758Z,3.85
2023-05-17T21:03:33.223Z,4.35
2023-05-17T21:05:36.279Z,3.92
2023-05-17T21:07:39.292Z,4.30
2023-05-17T21:09:41.500Z,4.35
2023-05-17T21:11:44.170Z,4.75
2023-05-17T21:13:46.546Z,5.00
2023-05-17T21:15:48.908Z,5.05
2023-05-17T21:17:51.302Z,4.50
2023-05-17T21:19:53.701Z,4.40
2023-05-17T21:21:56.364Z,4.15
2023-05-17T21:26:00.758Z,4.45
2023-05-17T21:28:02.958Z,4.90
2023-05-17T21:30:05.368Z,6.07
2023-05-17T21:32:07.711Z,6.43
2023-05-17T21:34:09.970Z,5.22
2023-05-17T21:36:12.189Z,5.50
2023-05-17T21:38:14.383Z,5.45
2023-05-17T21:40:16.535Z,4.85
2023-05-17T21:42:18.839Z,4.22
2023-05-17T21:44:21.031Z,4.25
2023-05-17T21:46:23.298Z,4.15
2023-05-17T21:48:25.553Z,4.78
2023-05-17T21:50:28.032Z,4.47
2023-05-17T21:54:32.708Z,4.47
2023-05-17T21:56:34.887Z,4.72
2023-05-17T21:58:37.127Z,4.18
2023-05-17T22:00:39.546Z,4.50
2023-05-17T22:02:42.509Z,5.15
2023-05-17T22:04:44.760Z,4.25
2023-05-17T22:06:46.983Z,4.68
2023-05-17T22:08:49.347Z,4.80
2023-05-17T22:10:51.627Z,4.28
2023-05-17T22:12:54.356Z,4.72
2023-05-17T22:16:59.033Z,3.80
2023-05-17T22:19:01.502Z,4.93
2023-05-17T22:21:03.793Z,4.78
2023-05-17T22:23:06.028Z,4.70
2023-05-17T22:25:08.607Z,4.57
2023-05-17T22:27:10.904Z,5.30
2023-05-17T22:29:13.208Z,5.10
2023-05-17T22:31:18.358Z,5.20
2023-05-17T22:33:23.983Z,4.75
2023-05-17T22:35:26.425Z,5.68
2023-05-17T22:37:30.283Z,4.47
2023-05-17T22:39:32.472Z,4.88
2023-05-17T22:41:34.788Z,4.15
2023-05-17T22:43:37.344Z,4.75
2023-05-17T22:45:40.299Z,5.00
2023-05-17T22:47:42.809Z,4.40
2023-05-17T22:49:45.530Z,4.68
2023-05-17T22:51:47.719Z,4.70
2023-05-17T22:53:49.986Z,5.22
2023-05-17T22:55:52.587Z,5.15
2023-05-17T22:57:54.858Z,4.88
2023-05-17T22:59:57.098Z,4.55
2023-05-17T23:01:59.603Z,5.40
2023-05-17T23:04:02.046Z,5.47
2023-05-17T23:06:05.266Z,4.95
2023-05-17T23:08:07.929Z,4.97
2023-05-17T23:12:14.348Z,4.50
2023-05-17T23:14:17.829Z,5.10
2023-05-17T23:16:20.481Z,5.40
2023-05-17T23:20:26.665Z,4.72
2023-05-17T23:22:31.725Z,4.80
2023-05-17T23:24:38.550Z,4.75
2023-05-17T23:26:41.438Z,5.35
2023-05-17T23:28:44.098Z,5.43
2023-05-17T23:30:48.726Z,5.18
2023-05-17T23:32:52.213Z,4.88
2023-05-17T23:34:58.282Z,5.28
2023-05-17T23:37:00.718Z,5.15
2023-05-17T23:39:02.927Z,5.55
2023-05-17T23:41:05.554Z,6.07
2023-05-17T23:45:12.395Z,5.28
2023-05-17T23:47:14.567Z,5.47
2023-05-17T23:49:16.739Z,5.65
2023-05-17T23:51:21.885Z,5.30
2023-05-17T23:53:26.132Z,5.97
2023-05-17T23:55:28.567Z,5.20
2023-05-17T23:57:30.864Z,5.28
2023-05-17T23:59:33.346Z,5.18
